Latest Coastal Weather Observations for Maroochydore

IDQ60701

Issued at 5:31 pm EST Monday 24 April 2017 (issued every 10 minutes, with the page automatically refreshed every 10 minutes)

About coastal observations | Map of coastal stations | Coastal observations for QLD | Marine services | Other Formats
Station Details ID: 040861 Name: SUNSHINE COAST AIRPORT Lat: -26.60 Lon: 153.09 Height: 3.3 m
Data from the previous 72 hours. | See also: Recent months at Maroochydore
Date/Time
EST
Temp
°C
Wind Pressure Rain since
9am
mm
Weather Cloud Vis
km
Sea
Height
m
Swell
Dir  Spd
kts
Gust
kts
hPa Trend Height
m
Period
s
Dir
24/05:00pm 22.4 SE 10 14 1018.3 - 0.0 - - 10 - - - -
24/04:30pm 23.0 SE 11 14 1018.3 - 0.0 - - 10 - - - -
24/04:00pm 23.3 SE 11 15 1018.4 - 0.0 - - 10 - - - -
24/03:30pm 23.7 SE 13 16 1018.1 - 0.0 - - 10 - - - -
24/03:00pm 24.4 SE 12 15 1018.2 - 0.0 - - 10 - - - -
24/02:30pm 24.5 SE 12 15 1018.3 - 0.0 - - 10 - - - -
24/02:00pm 24.3 SE 13 16 1018.2 - 0.0 - - 10 - - - -
24/01:30pm 24.7 SE 12 16 1018.6 - 0.0 - - 10 - - - -
24/01:00pm 24.7 SE 12 15 1018.9 - 0.0 - - 10 - - - -
24/12:30pm 24.7 SSE 12 15 1019.1 - 0.0 - - 10 - - - -
24/12:00pm 24.7 SSE 12 15 1019.5 - 0.0 - - 10 - - - -
24/11:30am 25.1 SSE 13 17 1019.7 - 0.0 - - 10 - - - -
24/11:00am 24.6 SE 13 17 1020.2 - 0.0 - Partly cloudy 10 - - - -
24/10:30am 25.0 S 10 14 1020.7 - 0.0 - Partly cloudy 10 - - - -
24/10:00am 23.5 S 10 13 1021.0 - 0.0 - - 10 - - - -
24/09:30am 23.1 SSW 10 13 1021.1 - 0.0 - - 10 - - - -
24/09:00am 22.4 SSW 8 12 1021.0 - 0.0 - Mostly clear 10 - - - -
24/08:30am 20.9 S 10 14 1021.0 - 0.0 - Partly cloudy 10 - - - -
24/08:00am 20.2 SSW 9 12 1020.8 - 0.0 - Cloudy 10 - - - -
24/07:30am 19.8 SSW 9 13 1020.4 - 0.0 - Partly cloudy 10 - - - -
24/07:00am 19.0 SSW 8 13 1020.2 - 0.0 - - 10 - - - -
24/06:30am 19.2 SSW 8 11 1019.9 - 0.0 - Cloudy 10 - - - -
24/06:00am 19.1 SSW 7 12 1019.8 - 0.0 - Mostly cloudy 10 - - - -
24/05:30am 18.8 SW 6 8 1019.4 - 0.0 - - 10 - - - -
24/05:00am 19.1 S 11 14 1019.3 - 0.0 - - 10 - - - -
24/04:30am 19.2 S 11 15 1018.9 - 0.0 - - 10 - - - -
24/04:00am 19.2 SSW 7 10 1019.0 - 0.0 - - 10 - - - -
24/03:30am 19.4 SW 8 11 1019.3 - 0.0 - - 10 - - - -
24/03:00am 18.7 SW 7 8 1019.1 - 0.0 - - 10 - - - -
24/02:30am 19.0 WSW 7 11 1019.8 - 0.0 - - 10 - - - -
24/02:00am 19.2 S 7 8 1019.6 - 0.0 - Partly cloudy 10 - - - -
24/01:30am 18.7 WSW 6 8 1020.1 - 0.0 - - 10 - - - -
24/01:00am 18.9 SW 5 6 1020.3 - 0.0 - - 10 - - - -
24/12:30am 18.9 WSW 6 8 1020.6 - 0.0 - - 10 - - - -
24/12:00am 18.9 S 5 6 1020.6 - 0.0 - Partly cloudy 10 - - - -
 
Date/Time
EST
Temp
°C
Wind Pressure Rain since
9am
mm
Weather Cloud Vis
km
Sea
Height
m
Swell
Dir  Spd
kts
Gust
kts
hPa Trend Height
m
Period
s
Dir
23/11:30pm 18.5 WSW 6 8 1021.3 - 0.0 - Partly cloudy 10 - - - -
23/11:00pm 18.5 WSW 5 7 1021.3 - 0.0 - Partly cloudy 10 - - - -
23/10:30pm 18.5 SW 6 7 1021.3 - 0.0 - Partly cloudy 10 - - - -
23/10:00pm 18.3 SW 5 6 1021.4 - 0.0 - Partly cloudy 10 - - - -
23/09:30pm 18.3 SW 6 7 1021.5 - 0.0 - Partly cloudy 10 - - - -
23/09:00pm 18.3 WSW 6 7 1021.6 - 0.0 - Mostly clear 10 - - - -
23/08:30pm 18.8 SW 4 6 1021.5 - 0.0 - Partly cloudy 10 - - - -
23/08:00pm 20.8 S 6 8 1021.2 - 0.0 - - 10 - - - -
23/07:30pm 21.6 SSE 9 11 1020.9 - 0.0 - - 10 - - - -
23/07:00pm 21.8 SSE 8 11 1020.7 - 0.0 - - 10 - - - -
23/06:30pm 21.8 SE 9 11 1020.4 - 0.0 - - 10 - - - -
23/06:00pm 21.7 SE 8 10 1020.2 - 0.0 - - 10 - - - -
23/05:30pm 22.0 SSE 9 12 1020.1 - 0.0 - - 10 - - - -
23/05:00pm 22.5 SE 9 13 1020.1 - 0.0 - - 10 - - - -
23/04:30pm 23.3 SE 9 12 1020.0 - 0.0 - - 10 - - - -
23/04:00pm 23.8 SE 11 14 1019.6 - 0.0 - - 10 - - - -
23/03:30pm 24.1 SE 12 15 1019.4 - 0.0 - - 10 - - - -
23/03:00pm 24.4 SE 13 16 1019.3 - 0.0 - - 10 - - - -
23/02:30pm 24.8 SE 12 15 1019.5 - 0.0 - - 10 - - - -
23/02:00pm 25.2 SE 12 16 1019.5 - 0.0 - - 10 - - - -
23/01:30pm 24.9 SE 12 16 1019.8 - 0.0 - - 10 - - - -
23/01:00pm 24.8 SSE 12 16 1020.1 - 0.0 - - 10 - - - -
23/12:30pm 24.7 SSE 12 15 1020.3 - 0.0 - - 10 - - - -
23/12:00pm 25.2 SSE 12 15 1020.7 - 0.0 - Partly cloudy 10 - - - -
23/11:30am 25.1 SSE 12 17 1021.2 - 0.0 - Cloudy 10 - - - -
23/11:00am 23.9 SSE 11 17 1021.5 - 0.0 - Cloudy 10 - - - -
23/10:30am 23.8 SSE 12 16 1021.8 - 0.0 - Cloudy 10 - - - -
23/10:00am 23.5 SSE 13 18 1022.1 - 0.0 - Partly cloudy 10 - - - -
23/09:30am 24.1 S 11 14 1022.2 - 0.0 - - 10 - - - -
23/09:00am 23.2 S 11 15 1022.3 - 0.0 - Mostly clear 10 - - - -
23/08:30am 22.1 S 11 14 1022.3 - 0.0 - Cloudy 10 - - - -
23/08:00am 20.3 S 9 12 1022.2 - 0.0 - Partly cloudy 10 - - - -
23/07:30am 19.3 S 11 14 1022.0 - 0.0 - Partly cloudy 10 - - - -
23/07:00am 19.3 S 11 14 1021.8 - 0.0 - Partly cloudy 10 - - - -
23/06:30am 18.8 S 9 13 1021.5 - 0.0 - Partly cloudy 10 - - - -
23/06:00am 19.2 S 11 14 1021.3 - 0.0 - Mostly cloudy 10 - - - -
23/05:30am 18.9 SSW 8 13 1021.0 - 0.0 - Partly cloudy 10 - - - -
23/05:00am 19.3 SSW 8 11 1020.9 - 0.0 - Partly cloudy 10 - - - -
23/04:30am 19.4 SSW 7 9 1020.7 - 0.0 - Partly cloudy 10 - - - -
23/04:00am 19.4 SSW 8 11 1020.8 - 0.0 - Partly cloudy 10 - - - -
23/03:30am 19.4 SSW 7 11 1020.5 - 0.0 - Partly cloudy 10 - - - -
23/03:00am 18.9 SW 6 8 1020.7 - 0.0 - Cloudy 10 - - - -
23/02:30am 19.3 SSW 6 9 1020.8 - 0.0 - Partly cloudy 10 - - - -
23/02:00am 19.3 SSW 8 11 1020.9 - 0.0 - Partly cloudy 10 - - - -
23/01:30am 19.1 SSW 8 10 1021.2 - 0.0 - Partly cloudy 10 - - - -
23/01:00am 19.1 SSW 10 13 1021.4 - 0.0 - Partly cloudy 10 - - - -
23/12:30am 19.2 SSW 9 13 1021.8 - 0.0 - - 10 - - - -
23/12:00am 17.9 SW 7 9 1022.0 - 0.0 - Partly cloudy 10 - - - -
 
Date/Time
EST
Temp
°C
Wind Pressure Rain since
9am
mm
Weather Cloud Vis
km
Sea
Height
m
Swell
Dir  Spd
kts
Gust
kts
hPa Trend Height
m
Period
s
Dir
22/11:30pm 18.0 SW 7 8 1022.4 - 0.0 - Partly cloudy 10 - - - -
22/11:00pm 17.5 SW 6 7 1022.6 - 0.0 - Partly cloudy 10 - - - -
22/10:30pm 17.6 SW 6 7 1022.7 - 0.0 - Partly cloudy 10 - - - -
22/10:00pm 17.9 SW 6 7 1022.9 - 0.0 - - 10 - - - -
22/09:30pm 19.5 SW 5 8 1023.0 - 0.0 - Partly cloudy 10 - - - -
22/09:00pm 21.7 SSE 11 13 1023.2 - 0.0 - Mostly clear 10 - - - -
22/08:30pm 21.7 SSE 12 15 1023.1 - 0.0 - - 10 - - - -
22/08:00pm 21.8 SE 13 17 1023.1 - 0.0 - Partly cloudy 10 - - - -
22/07:30pm 22.1 SE 13 17 1022.7 - 0.0 - - 10 - - - -
22/07:00pm 22.1 SE 13 16 1022.4 - 0.0 - - 10 - - - -
22/06:30pm 21.9 SE 13 19 1022.1 - 0.0 - Partly cloudy 10 - - - -
22/06:00pm 21.9 SSE 13 18 1021.8 - 0.0 - Mostly clear 10 - - - -
22/05:30pm 22.3 SE 13 19 1021.7 - 0.0 - Partly cloudy 10 - - - -
22/05:00pm 22.5 SE 14 20 1021.8 - 0.0 - Partly cloudy 10 - - - -
22/04:30pm 22.4 SE 13 17 1021.4 - 0.0 - Partly cloudy 10 - - - -
22/04:00pm 23.3 SE 14 19 1021.2 - 0.0 - Partly cloudy 10 - - - -
22/03:30pm 23.3 SE 14 19 1021.0 - 0.0 - Partly cloudy 10 - - - -
22/03:00pm 23.6 SE 14 18 1021.0 - 0.0 - Cloudy 10 - - - -
22/02:30pm 23.6 SE 15 21 1021.0 - 0.0 - Partly cloudy 10 - - - -
22/02:00pm 24.7 SE 17 22 1020.9 - 0.0 - Partly cloudy 10 - - - -
22/01:30pm 24.3 SE 16 20 1021.1 - 0.0 - Partly cloudy 10 - - - -
22/01:00pm 23.6 SE 15 20 1021.2 - 0.0 - Partly cloudy 10 - - - -
22/12:30pm 23.7 SE 15 21 1021.7 - 0.0 - Partly cloudy 10 - - - -
22/12:00pm 23.2 SE 15 18 1022.0 - 0.0 - Cloudy 10 - - - -
22/11:30am 21.7 S 10 14 1022.5 - 0.0 - Partly cloudy 10 - - - -
22/11:00am 21.3 S 11 15 1023.0 - 0.0 - Partly cloudy 10 - - - -
22/10:30am 20.8 S 9 12 1023.3 - 0.0 - Partly cloudy 10 - - - -
22/10:00am 20.8 S 10 13 1023.5 - 0.0 - Partly cloudy 10 - - - -
22/09:30am 20.9 S 11 16 1023.6 - 0.0 - Partly cloudy 10 - - - -
22/09:00am 20.6 S 11 18 1023.7 - 4.0 - Cloudy 10 - - - -
22/08:30am 20.6 S 9 13 1023.6 - 4.0 - Partly cloudy 10 - - - -
22/08:00am 20.3 SSE 17 24 1023.4 - 4.0 - Partly cloudy 10 - - - -
22/07:51am 20.3 SSE 17 25 1023.1 - 4.0 - Partly cloudy 10 - - - -
22/07:47am 20.3 SSE 15 25 1023.1 - 4.0 - Partly cloudy 10 - - - -
22/07:30am 20.3 SSE 16 22 1023.2 - 4.0 - Partly cloudy 10 - - - -
22/07:16am 20.4 SSE 14 18 1023.2 - 4.0 - Partly cloudy 10 - - - -
22/07:00am 20.0 SSE 12 16 1023.0 - 4.0 - Partly cloudy 10 - - - -
22/06:30am 20.2 SSE 12 17 1022.6 - 4.0 - Partly cloudy 10 - - - -
22/06:00am 20.2 SSE 15 21 1022.2 - 4.0 - Cloudy 10 - - - -
22/05:41am 20.0 SE 15 20 1022.0 - 4.0 - Partly cloudy 10 - - - -
22/05:30am 20.0 SE 16 21 1021.8 - 4.0 - Partly cloudy 10 - - - -
22/05:00am 18.8 S 11 18 1021.8 - 4.0 - Partly cloudy 10 - - - -
22/04:55am 18.4 S 10 15 1021.8 - 4.0 - Partly cloudy 10 - - - -
22/04:36am 18.4 S 8 14 1021.6 - 3.6 - Partly cloudy 3 - - - -
22/04:30am 18.5 S 11 15 1021.5 - 2.2 - Partly cloudy 4 - - - -
22/04:28am 18.5 S 11 15 1021.4 - 1.2 - Partly cloudy 5 - - - -
22/04:00am 19.0 SSW 10 16 1021.2 - 0.0 - Partly cloudy 10 - - - -
22/03:30am 18.7 SSW 11 16 1021.2 - 0.0 - Partly cloudy 10 - - - -
22/03:00am 18.8 SSW 10 13 1021.1 - 0.0 - Partly cloudy 10 - - - -
22/02:30am 18.9 SSW 11 14 1021.4 - 0.0 - Partly cloudy 10 - - - -
22/02:00am 18.7 SSW 11 14 1021.6 - 0.0 - Partly cloudy 10 - - - -
22/01:30am 18.9 SSW 9 13 1022.0 - 0.0 - Partly cloudy 10 - - - -
22/01:00am 19.0 SSW 10 15 1022.1 - 0.0 - - 10 - - - -
22/12:30am 18.9 SSW 7 10 1022.3 - 0.0 - - 10 - - - -
22/12:00am 19.2 SSW 9 12 1022.6 - 0.0 - Partly cloudy 10 - - - -
 
Date/Time
EST
Temp
°C
Wind Pressure Rain since
9am
mm
Weather Cloud Vis
km
Sea
Height
m
Swell
Dir  Spd
kts
Gust
kts
hPa Trend Height
m
Period
s
Dir
21/11:30pm 19.0 SSW 8 13 1023.0 - 0.0 - Partly cloudy 10 - - - -
21/11:00pm 18.4 SW 5 7 1023.0 - 0.0 - Partly cloudy 10 - - - -
21/10:30pm 18.6 SW 5 6 1023.2 - 0.0 - Partly cloudy 10 - - - -
21/10:00pm 19.4 SSW 5 8 1023.2 - 0.0 - Partly cloudy 10 - - - -
21/09:30pm 18.9 SW 6 7 1023.6 - 0.0 - Cloudy 10 - - - -
21/09:00pm 19.8 SW 6 7 1023.8 - 0.0 - Mostly clear 10 - - - -
21/08:30pm 20.7 SSW 7 10 1023.6 - 0.0 - Partly cloudy 10 - - - -
21/08:00pm 21.6 S 11 15 1023.4 - 0.0 - Partly cloudy 10 - - - -
21/07:30pm 22.2 SSE 13 17 1023.2 - 0.0 - Partly cloudy 10 - - - -
21/07:00pm 22.2 SSE 12 17 1023.1 - 0.0 - Partly cloudy 10 - - - -
21/06:30pm 22.0 SE 11 17 1022.9 - 0.0 - Partly cloudy 10 - - - -
21/06:00pm 21.9 SSE 11 15 1023.2 - 0.0 - Mostly clear 10 - - - -

Other Formats:

Comma delimited format used in spreadsheet applications
http://www.bom.gov.au/fwo/IDQ60701/IDQ60701.94569.axf

JavaScript Object Notation format (JSON) in row-major order
http://www.bom.gov.au/fwo/IDQ60701/IDQ60701.94569.json